createdAt,value
2023-02-19T00:00:49.163Z,10.79
2023-02-19T00:01:49.159Z,10.79
2023-02-19T00:02:49.101Z,10.88
2023-02-19T00:03:49.164Z,10.84
2023-02-19T00:04:49.160Z,10.85
2023-02-19T00:05:49.111Z,10.84
2023-02-19T00:06:49.102Z,10.84
2023-02-19T00:07:49.091Z,10.79
2023-02-19T00:08:49.032Z,10.84
2023-02-19T00:09:49.022Z,10.81
2023-02-19T00:10:49.035Z,10.76
2023-02-19T00:11:49.070Z,10.82
2023-02-19T00:12:49.005Z,10.78
2023-02-19T00:13:48.988Z,10.79
2023-02-19T00:14:48.999Z,10.82
2023-02-19T00:15:49.004Z,10.81
2023-02-19T00:16:48.972Z,10.73
2023-02-19T00:17:48.981Z,10.70
2023-02-19T00:18:48.961Z,10.73
2023-02-19T00:19:48.910Z,10.76
2023-02-19T00:20:48.902Z,10.76
2023-02-19T00:21:48.934Z,10.74
2023-02-19T00:22:48.901Z,10.70
2023-02-19T00:23:48.882Z,10.66
2023-02-19T00:24:49.325Z,10.59
2023-02-19T00:25:48.843Z,10.61
2023-02-19T00:26:48.839Z,10.63
2023-02-19T00:27:48.830Z,10.56
2023-02-19T00:28:48.833Z,10.55
2023-02-19T00:29:48.863Z,10.64
2023-02-19T00:30:48.910Z,10.64
2023-02-19T00:31:49.039Z,10.60
2023-02-19T00:32:48.795Z,10.59
2023-02-19T00:33:48.791Z,10.55
2023-02-19T00:34:48.786Z,10.53
2023-02-19T00:35:48.771Z,10.48
2023-02-19T00:36:48.771Z,10.55
2023-02-19T00:37:48.738Z,10.42
2023-02-19T00:38:48.704Z,10.56
2023-02-19T00:39:48.697Z,10.59
2023-02-19T00:40:48.707Z,10.51
2023-02-19T00:41:48.722Z,10.47
2023-02-19T00:42:48.805Z,10.48
2023-02-19T00:43:48.649Z,10.53
2023-02-19T00:44:48.677Z,10.52
2023-02-19T00:45:48.670Z,10.47
2023-02-19T00:46:48.669Z,10.47
2023-02-19T00:47:48.650Z,10.42
2023-02-19T00:48:48.594Z,10.42
2023-02-19T00:49:48.602Z,10.53
2023-02-19T00:50:48.591Z,10.45
2023-02-19T00:51:48.619Z,10.48
2023-02-19T00:52:48.582Z,10.42
2023-02-19T00:53:48.534Z,10.45
2023-02-19T00:54:48.538Z,10.47
2023-02-19T00:55:48.515Z,10.45
2023-02-19T00:56:48.570Z,10.52
2023-02-19T00:57:48.522Z,10.47
2023-02-19T00:58:48.526Z,10.48
2023-02-19T00:59:48.476Z,10.42
2023-02-19T01:00:48.473Z,10.45
2023-02-19T01:01:48.519Z,10.45
2023-02-19T01:02:48.473Z,10.47
2023-02-19T01:03:48.506Z,10.55
2023-02-19T01:04:48.465Z,10.47
2023-02-19T01:05:48.470Z,10.47
2023-02-19T01:06:48.410Z,10.47
2023-02-19T01:07:48.390Z,10.53
2023-02-19T01:08:48.383Z,10.47
2023-02-19T01:09:48.398Z,10.53
2023-02-19T01:10:48.349Z,10.55
2023-02-19T01:11:48.333Z,10.59
2023-02-19T01:12:48.339Z,10.60
2023-02-19T01:13:48.322Z,10.52
2023-02-19T01:14:48.320Z,10.60
2023-02-19T01:15:48.360Z,10.56
2023-02-19T01:16:48.312Z,10.56
2023-02-19T01:17:48.285Z,10.53
2023-02-19T01:18:48.334Z,10.53
2023-02-19T01:19:48.253Z,10.59
2023-02-19T01:20:48.259Z,10.47
2023-02-19T01:21:48.288Z,10.45
2023-02-19T01:22:48.210Z,10.51
2023-02-19T01:23:48.196Z,10.44
2023-02-19T01:24:48.208Z,10.51
2023-02-19T01:25:48.190Z,10.42
2023-02-19T01:26:48.172Z,10.47
2023-02-19T01:27:48.205Z,10.45
2023-02-19T01:28:48.205Z,10.45
2023-02-19T01:29:48.129Z,10.41
2023-02-19T01:30:48.149Z,10.47
2023-02-19T01:31:48.280Z,10.51
2023-02-19T01:32:48.120Z,10.51
2023-02-19T01:33:48.120Z,10.48
2023-02-19T01:34:48.115Z,10.48
2023-02-19T01:35:48.114Z,10.53
2023-02-19T01:36:48.066Z,10.52
2023-02-19T01:37:48.082Z,10.51
2023-02-19T01:38:48.048Z,10.45
2023-02-19T01:39:48.018Z,10.48
2023-02-19T01:40:48.030Z,10.45
2023-02-19T01:41:48.036Z,10.48
2023-02-19T01:42:48.000Z,10.47
2023-02-19T01:43:48.026Z,10.45
2023-02-19T01:44:47.964Z,10.51
2023-02-19T01:45:47.952Z,10.44
2023-02-19T01:46:47.988Z,10.48
2023-02-19T01:47:47.965Z,10.45
2023-02-19T01:48:47.939Z,10.47
2023-02-19T01:49:47.936Z,10.42
2023-02-19T01:50:47.921Z,10.47
2023-02-19T01:51:47.910Z,10.47
2023-02-19T01:52:47.880Z,10.44
2023-02-19T01:53:47.892Z,10.45
2023-02-19T01:54:47.876Z,10.47
2023-02-19T01:55:47.881Z,10.45
2023-02-19T01:56:47.831Z,10.48
2023-02-19T01:57:47.819Z,10.51
2023-02-19T01:58:47.846Z,10.47
2023-02-19T01:59:47.844Z,10.42
2023-02-19T02:00:47.855Z,10.48
2023-02-19T02:01:47.837Z,10.40
2023-02-19T02:02:47.773Z,10.40
2023-02-19T02:03:47.781Z,10.36
2023-02-19T02:04:47.757Z,10.42
2023-02-19T02:05:47.790Z,10.34
2023-02-19T02:06:47.758Z,10.41
2023-02-19T02:07:47.760Z,10.32
2023-02-19T02:08:47.704Z,10.38
2023-02-19T02:09:47.719Z,10.42
2023-02-19T02:10:47.682Z,10.30
2023-02-19T02:11:47.692Z,10.33
2023-02-19T02:12:47.678Z,10.33
2023-02-19T02:13:47.653Z,10.41
2023-02-19T02:14:47.667Z,10.33
2023-02-19T02:15:47.717Z,10.42
2023-02-19T02:16:47.622Z,10.33
2023-02-19T02:17:47.636Z,10.29
2023-02-19T02:18:47.589Z,10.36
2023-02-19T02:19:47.642Z,10.40
2023-02-19T02:20:47.566Z,10.36
2023-02-19T02:21:47.565Z,10.38
2023-02-19T02:22:47.566Z,10.27
2023-02-19T02:23:47.594Z,10.36
2023-02-19T02:24:47.524Z,10.34
2023-02-19T02:25:47.575Z,10.34
2023-02-19T02:26:47.503Z,10.40
2023-02-19T02:27:47.505Z,10.36
2023-02-19T02:28:47.499Z,10.38
2023-02-19T02:29:47.482Z,10.38
2023-02-19T02:30:47.503Z,10.30
2023-02-19T02:31:47.588Z,10.41
2023-02-19T02:32:47.452Z,10.33
2023-02-19T02:33:47.472Z,10.32
2023-02-19T02:34:47.454Z,10.36
2023-02-19T02:35:47.419Z,10.36
2023-02-19T02:36:47.412Z,10.40
2023-02-19T02:37:47.389Z,10.33
2023-02-19T02:38:47.396Z,10.33
2023-02-19T02:39:47.366Z,10.38
2023-02-19T02:40:47.386Z,10.40
2023-02-19T02:41:47.391Z,10.34
2023-02-19T02:42:47.329Z,10.32
2023-02-19T02:43:47.317Z,10.38
2023-02-19T02:44:47.324Z,10.34
2023-02-19T02:45:47.365Z,10.36
2023-02-19T02:46:47.300Z,10.36
2023-02-19T02:47:47.326Z,10.41
2023-02-19T02:48:47.259Z,10.40
2023-02-19T02:49:47.247Z,10.33
2023-02-19T02:50:47.258Z,10.40
2023-02-19T02:51:47.259Z,10.40
2023-02-19T02:52:47.228Z,10.38
2023-02-19T02:53:47.244Z,10.40
2023-02-19T02:54:47.192Z,10.40
2023-02-19T02:55:47.188Z,10.36
2023-02-19T02:56:47.184Z,10.38
2023-02-19T02:57:47.719Z,10.36
2023-02-19T02:58:47.196Z,10.40
2023-02-19T02:59:47.151Z,10.33
2023-02-19T03:00:47.164Z,10.36
2023-02-19T03:01:47.122Z,10.26
2023-02-19T03:02:47.106Z,10.29
2023-02-19T03:03:47.133Z,10.25
2023-02-19T03:04:47.114Z,10.23
2023-02-19T03:05:47.067Z,10.29
2023-02-19T03:06:47.056Z,10.25
2023-02-19T03:07:47.088Z,10.15
2023-02-19T03:08:47.062Z,10.14
2023-02-19T03:09:49.405Z,10.23
2023-02-19T03:10:47.085Z,10.22
2023-02-19T03:11:47.004Z,10.17
2023-02-19T03:12:47.029Z,10.26
2023-02-19T03:13:47.000Z,10.12
2023-02-19T03:14:46.997Z,10.09
2023-02-19T03:15:46.997Z,10.09
2023-02-19T03:16:47.025Z,10.08
2023-02-19T03:17:46.960Z,10.15
2023-02-19T03:18:46.929Z,10.08
2023-02-19T03:19:46.929Z,10.09
2023-02-19T03:20:46.908Z,10.15
2023-02-19T03:21:46.933Z,10.11
2023-02-19T03:22:46.959Z,10.09
2023-02-19T03:23:46.870Z,10.17
2023-02-19T03:24:46.866Z,10.09
2023-02-19T03:25:46.870Z,10.12
2023-02-19T03:26:46.873Z,10.15
2023-02-19T03:27:46.835Z,10.09
2023-02-19T03:28:46.819Z,10.09
2023-02-19T03:29:46.802Z,10.05
2023-02-19T03:30:46.812Z,10.14
2023-02-19T03:31:46.892Z,10.05
2023-02-19T03:32:46.805Z,10.09
2023-02-19T03:33:46.766Z,10.08
2023-02-19T03:34:46.826Z,10.04
2023-02-19T03:35:46.737Z,10.07
2023-02-19T03:36:46.737Z,10.04
2023-02-19T03:37:46.746Z,10.04
2023-02-19T03:38:46.700Z,10.01
2023-02-19T03:39:46.704Z,10.01
2023-02-19T03:40:46.760Z,10.05
2023-02-19T03:41:46.678Z,10.02
2023-02-19T03:42:46.662Z,10.02
2023-02-19T03:43:46.682Z,9.99
2023-02-19T03:44:46.638Z,9.96
2023-02-19T03:45:46.664Z,9.87
2023-02-19T03:46:46.664Z,9.84
2023-02-19T03:47:46.623Z,9.84
2023-02-19T03:48:46.598Z,9.78
2023-02-19T03:49:48.947Z,9.72
2023-02-19T03:50:46.611Z,9.75
2023-02-19T03:51:46.564Z,9.74
2023-02-19T03:52:46.551Z,9.76
2023-02-19T03:53:46.555Z,9.72
2023-02-19T03:54:46.534Z,9.69
2023-02-19T03:55:46.530Z,9.72
2023-02-19T03:56:46.549Z,9.79
2023-02-19T03:57:46.492Z,9.71
2023-02-19T03:58:46.486Z,9.60
2023-02-19T03:59:46.518Z,9.71
2023-02-19T04:00:46.465Z,9.72
2023-02-19T04:01:46.449Z,9.74
2023-02-19T04:02:46.459Z,9.72
2023-02-19T04:03:46.453Z,9.76
2023-02-19T04:04:46.487Z,9.61
2023-02-19T04:05:46.407Z,9.68
2023-02-19T04:06:46.440Z,9.68
2023-02-19T04:07:46.416Z,9.68
2023-02-19T04:08:46.375Z,9.68
2023-02-19T04:09:46.390Z,9.66
2023-02-19T04:10:46.365Z,9.58
2023-02-19T04:11:46.378Z,9.69
2023-02-19T04:12:46.361Z,9.61
2023-02-19T04:13:46.318Z,9.66
2023-02-19T04:14:46.326Z,9.65
2023-02-19T04:15:46.297Z,9.69
2023-02-19T04:16:46.321Z,9.65
2023-02-19T04:17:46.293Z,9.71
2023-02-19T04:18:46.302Z,9.61
2023-02-19T04:19:46.290Z,9.58
2023-02-19T04:20:46.240Z,9.69
2023-02-19T04:21:46.294Z,9.60
2023-02-19T04:22:46.219Z,9.57
2023-02-19T04:23:46.220Z,9.53
2023-02-19T04:24:46.237Z,9.53
2023-02-19T04:25:46.229Z,9.57
2023-02-19T04:26:46.175Z,9.53
2023-02-19T04:27:46.183Z,9.50
2023-02-19T04:28:46.193Z,9.47
2023-02-19T04:29:46.162Z,9.54
2023-02-19T04:30:46.138Z,9.54
2023-02-19T04:31:46.193Z,9.56
2023-02-19T04:32:46.104Z,9.46
2023-02-19T04:33:46.119Z,9.57
2023-02-19T04:34:46.095Z,9.51
2023-02-19T04:35:46.086Z,9.50
2023-02-19T04:36:46.110Z,9.43
2023-02-19T04:37:46.047Z,9.48
2023-02-19T04:38:46.042Z,9.48
2023-02-19T04:39:46.061Z,9.40
2023-02-19T04:40:46.021Z,9.53
2023-02-19T04:41:46.039Z,9.56
2023-02-19T04:42:46.049Z,9.43
2023-02-19T04:43:45.980Z,9.46
2023-02-19T04:44:45.974Z,9.39
2023-02-19T04:45:45.960Z,9.40
2023-02-19T04:46:45.967Z,9.39
2023-02-19T04:47:45.934Z,9.36
2023-02-19T04:48:45.932Z,9.39
2023-02-19T04:49:45.911Z,9.32
2023-02-19T04:50:45.914Z,9.33
2023-02-19T04:51:45.936Z,9.33
2023-02-19T04:52:45.900Z,9.29
2023-02-19T04:53:45.904Z,9.36
2023-02-19T04:54:45.875Z,9.29
2023-02-19T04:55:45.854Z,9.32
2023-02-19T04:56:45.848Z,9.38
2023-02-19T04:57:45.874Z,9.32
2023-02-19T04:58:45.847Z,9.32
2023-02-19T04:59:45.804Z,9.29
2023-02-19T05:00:45.789Z,9.33
2023-02-19T05:01:45.820Z,9.28
2023-02-19T05:02:45.838Z,9.35
2023-02-19T05:03:45.772Z,9.29
2023-02-19T05:04:45.746Z,9.32
2023-02-19T05:05:45.736Z,9.26
2023-02-19T05:06:45.748Z,9.33
2023-02-19T05:07:45.739Z,9.24
2023-02-19T05:08:45.707Z,9.23
2023-02-19T05:09:45.702Z,9.28
2023-02-19T05:10:45.710Z,9.23
2023-02-19T05:11:45.668Z,9.18
2023-02-19T05:12:46.203Z,9.21
2023-02-19T05:13:45.719Z,9.18
2023-02-19T05:14:45.651Z,9.20
2023-02-19T05:15:45.678Z,9.17
2023-02-19T05:16:45.658Z,9.20
2023-02-19T05:17:45.602Z,9.18
2023-02-19T05:18:45.599Z,9.17
2023-02-19T05:19:45.608Z,9.18
2023-02-19T05:20:45.574Z,9.11
2023-02-19T05:21:45.557Z,9.08
2023-02-19T05:22:45.584Z,9.21
2023-02-19T05:23:45.550Z,9.11
2023-02-19T05:24:45.538Z,9.15
2023-02-19T05:25:45.532Z,9.10
2023-02-19T05:26:45.662Z,9.08
2023-02-19T05:27:45.529Z,9.17
2023-02-19T05:28:45.481Z,9.13
2023-02-19T05:29:45.467Z,9.15
2023-02-19T05:30:45.485Z,9.10
2023-02-19T05:31:45.613Z,9.08
2023-02-19T05:32:45.447Z,9.10
2023-02-19T05:33:45.455Z,9.18
2023-02-19T05:34:45.411Z,9.15
2023-02-19T05:35:45.412Z,9.08
2023-02-19T05:36:45.392Z,9.17
2023-02-19T05:37:45.409Z,9.17
2023-02-19T05:38:45.410Z,9.15
2023-02-19T05:39:45.396Z,9.14
2023-02-19T05:40:45.342Z,9.17
2023-02-19T05:41:45.342Z,9.05
2023-02-19T05:42:45.358Z,9.10
2023-02-19T05:43:45.363Z,9.13
2023-02-19T05:44:45.297Z,9.08
2023-02-19T05:45:45.288Z,9.11
2023-02-19T05:46:45.353Z,9.10
2023-02-19T05:47:45.278Z,9.10
2023-02-19T05:48:45.291Z,9.10
2023-02-19T05:49:45.280Z,9.10
2023-02-19T05:50:45.243Z,9.21
2023-02-19T05:51:45.221Z,9.10
2023-02-19T05:52:45.242Z,9.13
2023-02-19T05:53:45.232Z,9.11
2023-02-19T05:54:45.202Z,9.04
2023-02-19T05:55:45.208Z,9.05
2023-02-19T05:56:45.213Z,9.04
2023-02-19T05:57:45.176Z,9.01
2023-02-19T05:58:45.151Z,9.05
2023-02-19T05:59:45.133Z,9.11
2023-02-19T06:00:45.131Z,8.95
2023-02-19T06:01:45.110Z,9.02
2023-02-19T06:02:45.259Z,8.92
2023-02-19T06:03:45.166Z,8.94
2023-02-19T06:04:45.098Z,9.01
2023-02-19T06:05:45.076Z,9.01
2023-02-19T06:06:45.078Z,8.94
2023-02-19T06:07:45.046Z,8.94
2023-02-19T06:08:45.038Z,8.94
2023-02-19T06:09:45.093Z,8.94
2023-02-19T06:10:45.029Z,8.94
2023-02-19T06:11:45.028Z,8.96
2023-02-19T06:12:45.008Z,8.98
2023-02-19T06:13:44.978Z,8.94
2023-02-19T06:14:44.989Z,8.98
2023-02-19T06:15:44.987Z,9.01
2023-02-19T06:16:44.945Z,8.96
2023-02-19T06:17:44.967Z,8.91
2023-02-19T06:18:44.932Z,8.94
2023-02-19T06:19:44.909Z,9.01
2023-02-19T06:20:44.924Z,8.92
2023-02-19T06:21:44.910Z,8.91
2023-02-19T06:22:44.922Z,8.91
2023-02-19T06:23:44.882Z,9.01
2023-02-19T06:24:44.856Z,8.91
2023-02-19T06:25:44.867Z,8.95
2023-02-19T06:26:44.864Z,8.96
2023-02-19T06:27:44.852Z,8.95
2023-02-19T06:28:44.841Z,8.98
2023-02-19T06:29:44.833Z,8.94
2023-02-19T06:30:44.792Z,8.96
2023-02-19T06:31:44.995Z,8.96
2023-02-19T06:32:44.772Z,8.92
2023-02-19T06:33:44.788Z,9.10
2023-02-19T06:34:44.790Z,9.10
2023-02-19T06:35:44.737Z,9.13
2023-02-19T06:36:44.731Z,9.10
2023-02-19T06:37:44.716Z,9.05
2023-02-19T06:38:44.777Z,9.05
2023-02-19T06:39:44.706Z,9.08
2023-02-19T06:40:44.726Z,9.05
2023-02-19T06:41:44.672Z,9.05
2023-02-19T06:42:44.661Z,9.08
2023-02-19T06:43:44.693Z,9.05
2023-02-19T06:44:44.654Z,9.04
2023-02-19T06:45:44.634Z,8.94
2023-02-19T06:46:44.675Z,9.01
2023-02-19T06:47:44.649Z,8.95
2023-02-19T06:48:44.620Z,8.98
2023-02-19T06:49:44.582Z,8.96
2023-02-19T06:50:44.591Z,8.99
2023-02-19T06:51:44.600Z,9.02
2023-02-19T06:52:44.574Z,8.99
2023-02-19T06:53:44.553Z,9.04
2023-02-19T06:54:44.530Z,9.08
2023-02-19T06:55:44.523Z,8.94
2023-02-19T06:56:46.999Z,8.95
2023-02-19T06:57:44.516Z,8.89
2023-02-19T06:58:44.484Z,8.94
2023-02-19T06:59:44.484Z,8.92
2023-02-19T07:00:44.519Z,8.94
2023-02-19T07:01:44.472Z,8.91
2023-02-19T07:02:44.444Z,8.95
2023-02-19T07:03:44.472Z,8.83
2023-02-19T07:04:44.593Z,8.86
2023-02-19T07:05:44.401Z,8.84
2023-02-19T07:06:44.423Z,8.76
2023-02-19T07:07:44.403Z,8.79
2023-02-19T07:08:44.382Z,8.83
2023-02-19T07:09:44.395Z,8.84
2023-02-19T07:10:44.396Z,8.79
2023-02-19T07:11:44.358Z,8.83
2023-02-19T07:12:44.330Z,8.73
2023-02-19T07:13:44.310Z,8.83
2023-02-19T07:14:44.334Z,8.76
2023-02-19T07:15:44.315Z,8.80
2023-02-19T07:16:44.337Z,8.83
2023-02-19T07:17:44.271Z,8.80
2023-02-19T07:18:44.274Z,8.77
2023-02-19T07:19:44.278Z,8.76
2023-02-19T07:20:44.249Z,8.68
2023-02-19T07:21:44.219Z,8.79
2023-02-19T07:22:44.211Z,8.70
2023-02-19T07:23:44.268Z,8.76
2023-02-19T07:24:46.228Z,8.73
2023-02-19T07:25:44.194Z,8.71
2023-02-19T07:26:44.181Z,8.76
2023-02-19T07:27:44.292Z,8.81
2023-02-19T07:28:44.143Z,8.80
2023-02-19T07:29:44.134Z,8.76
2023-02-19T07:30:44.245Z,8.73
2023-02-19T07:31:44.138Z,8.74
2023-02-19T07:32:44.130Z,8.81
2023-02-19T07:33:44.098Z,8.76
2023-02-19T07:34:44.074Z,8.81
2023-02-19T07:35:44.082Z,8.86
2023-02-19T07:36:44.099Z,8.92
2023-02-19T07:37:44.051Z,8.94
2023-02-19T07:38:44.031Z,8.91
2023-02-19T07:39:44.019Z,8.98
2023-02-19T07:40:44.011Z,8.92
2023-02-19T07:41:44.048Z,8.91
2023-02-19T07:42:44.014Z,8.84
2023-02-19T07:43:43.989Z,8.73
2023-02-19T07:44:43.968Z,8.76
2023-02-19T07:45:43.986Z,8.68
2023-02-19T07:46:43.948Z,8.68
2023-02-19T07:47:43.964Z,8.73
2023-02-19T07:48:43.936Z,8.65
2023-02-19T07:49:43.946Z,8.65
2023-02-19T07:50:43.920Z,8.65
2023-02-19T07:51:43.887Z,8.56
2023-02-19T07:52:44.304Z,8.55
2023-02-19T07:53:43.868Z,8.55
2023-02-19T07:54:43.879Z,8.50
2023-02-19T07:55:43.845Z,8.48
2023-02-19T07:56:43.845Z,8.41
2023-02-19T07:57:43.823Z,8.38
2023-02-19T07:58:43.834Z,8.38
2023-02-19T07:59:43.811Z,8.37
2023-02-19T08:00:43.807Z,8.30
2023-02-19T08:01:43.826Z,8.23
2023-02-19T08:02:43.777Z,8.15
2023-02-19T08:03:43.756Z,8.08
2023-02-19T08:04:43.752Z,8.11
2023-02-19T08:05:43.773Z,8.04
2023-02-19T08:06:43.755Z,8.11
2023-02-19T08:07:43.710Z,8.00
2023-02-19T08:08:43.709Z,7.90
2023-02-19T08:09:43.736Z,7.93
2023-02-19T08:10:43.679Z,7.97
2023-02-19T08:11:43.680Z,7.90
2023-02-19T08:12:43.655Z,7.90
2023-02-19T08:13:43.642Z,7.83
2023-02-19T08:14:43.672Z,7.89
2023-02-19T08:15:43.635Z,7.85
2023-02-19T08:16:43.628Z,7.69
2023-02-19T08:17:43.622Z,7.80
2023-02-19T08:18:43.633Z,7.80
2023-02-19T08:19:43.575Z,7.83
2023-02-19T08:20:43.584Z,7.75
2023-02-19T08:21:43.581Z,7.75
2023-02-19T08:22:43.556Z,7.80
2023-02-19T08:23:43.555Z,7.93
2023-02-19T08:24:43.523Z,7.95
2023-02-19T08:25:43.508Z,7.82
2023-02-19T08:26:43.813Z,7.85
2023-02-19T08:27:43.488Z,7.82
2023-02-19T08:28:43.485Z,7.92
2023-02-19T08:29:43.461Z,7.79
2023-02-19T08:30:43.581Z,7.72
2023-02-19T08:31:43.593Z,7.74
2023-02-19T08:32:43.466Z,7.69
2023-02-19T08:33:43.446Z,7.75
2023-02-19T08:34:43.434Z,7.71
2023-02-19T08:35:43.405Z,7.67
2023-02-19T08:36:43.408Z,7.79
2023-02-19T08:37:43.389Z,7.72
2023-02-19T08:38:43.411Z,7.72
2023-02-19T08:39:43.399Z,7.67
2023-02-19T08:40:43.368Z,7.67
2023-02-19T08:41:43.327Z,7.55
2023-02-19T08:42:43.343Z,7.50
2023-02-19T08:43:43.362Z,7.57
2023-02-19T08:44:43.308Z,7.48
2023-02-19T08:45:43.326Z,7.46
2023-02-19T08:46:43.279Z,7.40
2023-02-19T08:47:43.259Z,7.39
2023-02-19T08:48:43.252Z,7.31
2023-02-19T08:49:43.257Z,7.28
2023-02-19T08:50:43.241Z,7.32
2023-02-19T08:51:43.237Z,7.39
2023-02-19T08:52:43.203Z,7.39
2023-02-19T08:53:43.212Z,7.42
2023-02-19T08:54:43.183Z,7.45
2023-02-19T08:55:43.190Z,7.35
2023-02-19T08:56:43.212Z,7.37
2023-02-19T08:57:43.167Z,7.42
2023-02-19T08:58:43.137Z,7.40
2023-02-19T08:59:43.144Z,7.35
2023-02-19T09:00:43.119Z,7.39
2023-02-19T09:01:43.218Z,7.34
2023-02-19T09:02:43.141Z,7.28
2023-02-19T09:03:43.086Z,7.35
2023-02-19T09:04:43.107Z,7.43
2023-02-19T09:05:43.054Z,7.32
2023-02-19T09:06:43.058Z,7.32
2023-02-19T09:07:43.070Z,7.35
2023-02-19T09:08:43.031Z,7.35
2023-02-19T09:09:43.023Z,7.25
2023-02-19T09:10:43.024Z,7.28
2023-02-19T09:11:42.991Z,7.37
2023-02-19T09:12:42.996Z,7.42
2023-02-19T09:13:43.002Z,7.42
2023-02-19T09:14:43.010Z,7.42
2023-02-19T09:15:43.036Z,7.43
2023-02-19T09:16:42.950Z,7.42
2023-02-19T09:17:42.921Z,7.48
2023-02-19T09:18:42.912Z,7.50
2023-02-19T09:19:43.033Z,7.52
2023-02-19T09:20:42.931Z,7.60
2023-02-19T09:21:42.881Z,7.69
2023-02-19T09:22:42.898Z,7.64
2023-02-19T09:23:42.878Z,7.69
2023-02-19T09:24:42.848Z,7.80
2023-02-19T09:25:42.877Z,7.86
2023-02-19T09:26:42.826Z,7.83
2023-02-19T09:27:42.832Z,7.89
2023-02-19T09:28:42.802Z,7.98
2023-02-19T09:29:42.809Z,7.92
2023-02-19T09:30:42.869Z,8.04
2023-02-19T09:31:42.963Z,8.05
2023-02-19T09:32:42.757Z,8.12
2023-02-19T09:33:42.743Z,8.12
2023-02-19T09:34:42.775Z,8.28
2023-02-19T09:35:42.723Z,8.29
2023-02-19T09:36:42.741Z,8.26
2023-02-19T09:37:42.734Z,8.40
2023-02-19T09:38:42.695Z,8.43
2023-02-19T09:39:42.678Z,8.50
2023-02-19T09:40:42.816Z,8.50
2023-02-19T09:41:42.660Z,8.52
2023-02-19T09:42:42.686Z,8.59
2023-02-19T09:43:42.637Z,8.68
2023-02-19T09:44:42.671Z,8.73
2023-02-19T09:45:50.908Z,8.70
2023-02-19T09:46:42.605Z,8.79
2023-02-19T09:47:42.596Z,8.71
2023-02-19T09:48:42.579Z,8.89
2023-02-19T09:49:42.567Z,8.87
2023-02-19T09:50:42.602Z,8.89
2023-02-19T09:51:42.545Z,8.94
2023-02-19T09:52:42.543Z,8.96
2023-02-19T09:53:42.521Z,9.10
2023-02-19T09:54:42.522Z,9.13
2023-02-19T09:55:42.516Z,9.15
2023-02-19T09:56:42.527Z,9.20
2023-02-19T09:57:42.509Z,9.23
2023-02-19T09:58:42.467Z,9.31
2023-02-19T09:59:42.473Z,9.32
2023-02-19T10:00:42.462Z,9.39
2023-02-19T10:01:42.495Z,9.33
2023-02-19T10:02:42.437Z,9.39
2023-02-19T10:03:42.410Z,9.40
2023-02-19T10:04:42.423Z,9.42
2023-02-19T10:05:42.410Z,9.40
2023-02-19T10:06:42.404Z,9.43
2023-02-19T10:07:42.398Z,9.36
2023-02-19T10:08:42.369Z,9.35
2023-02-19T10:09:42.343Z,9.57
2023-02-19T10:10:42.331Z,9.60
2023-02-19T10:11:51.369Z,9.60
2023-02-19T10:12:42.310Z,9.60
2023-02-19T10:13:42.306Z,9.71
2023-02-19T10:14:42.289Z,9.64
2023-02-19T10:15:42.281Z,9.74
2023-02-19T10:16:42.268Z,9.75
2023-02-19T10:17:42.274Z,9.75
2023-02-19T10:18:42.277Z,9.69
2023-02-19T10:19:42.245Z,9.74
2023-02-19T10:20:42.220Z,9.68
2023-02-19T10:21:42.208Z,9.83
2023-02-19T10:22:42.236Z,9.79
2023-02-19T10:23:42.200Z,9.75
2023-02-19T10:24:42.217Z,9.74
2023-02-19T10:25:42.186Z,9.76
2023-02-19T10:26:42.150Z,9.74
2023-02-19T10:27:42.165Z,9.75
2023-02-19T10:28:42.166Z,9.78
2023-02-19T10:29:50.125Z,9.72
2023-02-19T10:30:42.113Z,9.89
2023-02-19T10:31:42.234Z,9.74
2023-02-19T10:32:42.087Z,9.84
2023-02-19T10:33:42.093Z,9.90
2023-02-19T10:34:42.082Z,9.94
2023-02-19T10:35:42.060Z,10.07
2023-02-19T10:36:50.930Z,10.07
2023-02-19T10:37:42.047Z,10.04
2023-02-19T10:38:42.031Z,10.14
2023-02-19T10:39:42.079Z,10.14
2023-02-19T10:40:41.998Z,10.14
2023-02-19T10:41:44.107Z,10.11
2023-02-19T10:42:41.991Z,10.18
2023-02-19T10:43:41.985Z,10.22
2023-02-19T10:44:41.966Z,10.15
2023-02-19T10:45:41.987Z,10.14
2023-02-19T10:46:41.975Z,10.08
2023-02-19T10:47:41.922Z,10.14
2023-02-19T10:48:41.916Z,10.14
2023-02-19T10:49:41.926Z,10.15
2023-02-19T10:50:41.908Z,10.22
2023-02-19T10:51:41.996Z,10.17
2023-02-19T10:52:41.864Z,10.11
2023-02-19T10:53:41.856Z,10.08
2023-02-19T10:54:41.847Z,10.15
2023-02-19T10:55:41.832Z,10.08
2023-02-19T10:56:41.863Z,10.20
2023-02-19T10:57:41.847Z,10.09
2023-02-19T10:58:41.795Z,10.08
2023-02-19T10:59:41.814Z,10.11
2023-02-19T11:00:41.793Z,10.01
2023-02-19T11:01:41.829Z,10.08
2023-02-19T11:02:41.779Z,10.05
2023-02-19T11:03:41.745Z,10.08
2023-02-19T11:04:41.747Z,10.07
2023-02-19T11:05:41.759Z,10.09
2023-02-19T11:06:41.732Z,10.09
2023-02-19T11:07:41.709Z,10.14
2023-02-19T11:08:41.714Z,10.22
2023-02-19T11:09:41.677Z,10.25
2023-02-19T11:10:41.719Z,10.40
2023-02-19T11:11:41.664Z,10.44
2023-02-19T11:12:41.643Z,10.55
2023-02-19T11:13:41.639Z,10.60
2023-02-19T11:14:41.642Z,10.52
2023-02-19T11:15:41.621Z,10.55
2023-02-19T11:16:41.670Z,10.68
2023-02-19T11:17:41.601Z,10.71
2023-02-19T11:18:41.579Z,10.63
2023-02-19T11:19:41.577Z,10.66
2023-02-19T11:20:41.579Z,10.67
2023-02-19T11:21:41.541Z,10.63
2023-02-19T11:22:41.568Z,10.63
2023-02-19T11:23:41.541Z,10.59
2023-02-19T11:24:41.545Z,10.47
2023-02-19T11:25:41.509Z,10.45
2023-02-19T11:26:41.540Z,10.33
2023-02-19T11:27:41.473Z,10.33
2023-02-19T11:28:41.473Z,10.27
2023-02-19T11:29:41.452Z,10.30
2023-02-19T11:30:41.587Z,10.09
2023-02-19T11:31:41.655Z,10.05
2023-02-19T11:32:41.469Z,9.99
2023-02-19T11:33:41.408Z,9.96
2023-02-19T11:34:41.514Z,9.86
2023-02-19T11:35:41.386Z,9.74
2023-02-19T11:36:41.381Z,9.66
2023-02-19T11:37:41.366Z,9.66
2023-02-19T11:38:41.358Z,9.51
2023-02-19T11:39:41.362Z,9.35
2023-02-19T11:40:41.354Z,9.35
2023-02-19T11:41:41.328Z,9.23
2023-02-19T11:42:41.324Z,9.17
2023-02-19T11:43:41.336Z,9.14
2023-02-19T11:44:41.292Z,9.20
2023-02-19T11:45:41.388Z,9.21
2023-02-19T11:46:41.336Z,9.23
2023-02-19T11:47:41.268Z,9.20
2023-02-19T11:48:41.264Z,9.29
2023-02-19T11:49:41.277Z,9.31
2023-02-19T11:50:41.224Z,9.26
2023-02-19T11:51:41.264Z,9.33
2023-02-19T11:52:41.202Z,9.47
2023-02-19T11:53:41.240Z,9.51
2023-02-19T11:54:41.185Z,9.53
2023-02-19T11:55:41.178Z,9.64
2023-02-19T11:56:41.156Z,9.72
2023-02-19T11:57:41.187Z,9.72
2023-02-19T11:58:41.143Z,9.81
2023-02-19T11:59:41.146Z,9.76
2023-02-19T12:00:41.109Z,9.83
2023-02-19T12:01:41.168Z,9.89
2023-02-19T12:02:41.088Z,10.02
2023-02-19T12:03:41.116Z,10.09
2023-02-19T12:04:41.110Z,9.99
2023-02-19T12:05:41.072Z,10.08
2023-02-19T12:06:41.044Z,10.26
2023-02-19T12:07:41.034Z,10.30
2023-02-19T12:08:41.040Z,10.25
2023-02-19T12:09:41.048Z,10.30
2023-02-19T12:10:41.015Z,10.23
2023-02-19T12:11:41.008Z,10.29
2023-02-19T12:12:40.976Z,10.26
2023-02-19T12:13:40.967Z,10.29
2023-02-19T12:14:40.975Z,10.14
2023-02-19T12:15:40.995Z,10.20
2023-02-19T12:16:40.988Z,10.18
2023-02-19T12:17:40.924Z,10.20
2023-02-19T12:18:40.913Z,10.20
2023-02-19T12:19:40.899Z,10.20
2023-02-19T12:20:40.918Z,10.34
2023-02-19T12:21:40.906Z,10.42
2023-02-19T12:22:40.879Z,10.60
2023-02-19T12:23:40.857Z,10.71
2023-02-19T12:24:40.853Z,10.76
2023-02-19T12:25:40.834Z,10.85
2023-02-19T12:26:40.845Z,10.82
2023-02-19T12:27:40.839Z,10.73
2023-02-19T12:28:40.820Z,10.74
2023-02-19T12:29:40.799Z,10.79
2023-02-19T12:30:40.800Z,10.81
2023-02-19T12:31:40.852Z,10.81
2023-02-19T12:32:40.788Z,10.89
2023-02-19T12:33:40.771Z,10.86
2023-02-19T12:34:40.732Z,10.84
2023-02-19T12:35:40.721Z,10.74
2023-02-19T12:36:40.742Z,10.73
2023-02-19T12:37:40.713Z,10.82
2023-02-19T12:38:40.690Z,10.92
2023-02-19T12:39:40.694Z,10.89
2023-02-19T12:40:40.722Z,11.02
2023-02-19T12:41:40.675Z,10.99
2023-02-19T12:42:40.647Z,11.10
2023-02-19T12:43:40.648Z,11.11
2023-02-19T12:44:40.665Z,11.09
2023-02-19T12:45:40.669Z,11.06
2023-02-19T12:46:40.602Z,10.99
2023-02-19T12:47:40.632Z,11.02
2023-02-19T12:48:40.578Z,11.06
2023-02-19T12:49:40.602Z,11.10
2023-02-19T12:50:40.583Z,11.06
2023-02-19T12:51:40.545Z,11.17
2023-02-19T12:52:40.581Z,11.11
2023-02-19T12:53:40.524Z,11.15
2023-02-19T12:54:40.517Z,11.10
2023-02-19T12:55:40.545Z,11.00
2023-02-19T12:56:40.530Z,10.94
2023-02-19T12:57:40.482Z,10.85
2023-02-19T12:58:40.535Z,10.91
2023-02-19T12:59:40.480Z,10.84
2023-02-19T13:00:40.466Z,10.86
2023-02-19T13:01:40.450Z,10.99
2023-02-19T13:02:40.486Z,11.02
2023-02-19T13:03:40.417Z,11.00
2023-02-19T13:04:40.417Z,11.09
2023-02-19T13:05:40.393Z,11.17
2023-02-19T13:06:40.403Z,11.22